Time;durP1;ratioP1;P1;durP2;ratioP2;P2;SDS_P1;SDS_P2;PMS_P1;PMS_P2;Temp;Humidity;BMP_temperature;BMP_pressure;BME280_temperature;BME280_humidity;BME280_pressure;Samples;Min_cycle;Max_cycle;Signal;HPM_P1;HPM_P2
2022/05/01 00:00:20;;;;;;;14.27;11.95;;;;;;;7.98;100.00;162650.19;5013294;28;20345;-54
2022/05/01 00:02:45;;;;;;;27.25;16.13;;;;;;;7.97;100.00;162647.47;5013453;28;20387;-54
2022/05/01 00:05:11;;;;;;;13.20;11.07;;;;;;;7.99;100.00;162652.88;5015295;28;20018;-54
2022/05/01 00:07:36;;;;;;;15.93;13.02;;;;;;;8.01;100.00;162658.22;5013198;28;20496;-54
2022/05/01 00:10:03;;;;;;;18.55;13.93;;;;;;;8.01;100.00;162658.22;5014960;28;20033;-54
2022/05/01 00:12:29;;;;;;;14.98;13.45;;;;;;;7.98;100.00;162651.50;5013024;28;20096;-54
2022/05/01 00:14:54;;;;;;;23.58;14.45;;;;;;;7.92;100.00;162636.72;5014738;28;20142;-54
2022/05/01 00:17:20;;;;;;;19.05;13.02;;;;;;;7.90;100.00;162631.31;5013560;28;20668;-54
2022/05/01 00:19:45;;;;;;;16.20;14.50;;;;;;;7.88;100.00;162625.91;5014538;28;20488;-54
2022/05/01 00:22:10;;;;;;;14.38;12.52;;;;;;;7.88;100.00;162624.59;5013208;28;20038;-54
2022/05/01 00:24:36;;;;;;;19.83;12.13;;;;;;;7.88;100.00;162625.91;5014620;28;20026;-55
2022/05/01 00:27:02;;;;;;;16.30;12.25;;;;;;;7.85;100.00;162616.47;5013355;28;20041;-53
2022/05/01 00:29:27;;;;;;;12.85;11.63;;;;;;;7.84;100.00;162615.16;5014353;28;20153;-52
2022/05/01 00:31:52;;;;;;;14.90;11.00;;;;;;;7.84;100.00;162613.78;5012512;28;20049;-53
2022/05/01 00:37:02;;;;;;;19.23;12.82;;;;;;;7.75;100.00;162592.22;5012969;28;20413;-54
2022/05/01 00:39:27;;;;;;;19.08;13.90;;;;;;;7.85;100.00;162617.84;5014573;28;20440;-54
2022/05/01 00:41:53;;;;;;;13.35;11.95;;;;;;;7.88;100.00;162625.91;5012838;28;20069;-54
2022/05/01 00:44:21;;;;;;;13.93;11.48;;;;;;;7.85;100.00;162617.84;5014594;28;20415;-54
2022/05/01 00:46:49;;;;;;;13.68;12.27;;;;;;;7.83;100.00;162612.44;5012500;28;20046;-54
2022/05/01 00:49:20;;;;;;;13.98;11.48;;;;;;;7.80;100.00;162604.34;5014439;28;20052;-53
2022/05/01 00:51:51;;;;;;;17.80;12.07;;;;;;;7.76;100.00;162593.59;5012455;28;20037;-53
2022/05/01 00:54:20;;;;;;;14.88;11.65;;;;;;;7.80;100.00;162604.34;5014288;28;20065;-54
2022/05/01 00:56:49;;;;;;;17.38;13.82;;;;;;;7.74;100.00;162588.19;5012815;28;20042;-54
2022/05/01 00:59:15;;;;;;;14.05;11.13;;;;;;;7.68;100.00;162572.03;5013619;28;20037;-54
2022/05/01 01:01:44;;;;;;;16.60;13.60;;;;;;;7.63;100.00;162561.22;5011955;28;20046;-54
2022/05/01 01:04:10;;;;;;;20.63;14.02;;;;;;;7.56;100.00;162542.38;5013926;28;20026;-54
2022/05/01 01:06:37;;;;;;;14.65;12.98;;;;;;;7.63;100.00;162561.22;5012139;28;20065;-54
2022/05/01 01:09:03;;;;;;;18.75;12.18;;;;;;;7.65;100.00;162563.94;5013992;28;20385;-54
2022/05/01 01:11:28;;;;;;;17.98;12.90;;;;;;;7.61;100.00;162555.88;5012258;28;20096;-53
2022/05/01 01:13:54;;;;;;;14.55;12.50;;;;;;;7.59;100.00;162550.47;5014099;28;20022;-53
2022/05/01 01:16:20;;;;;;;16.33;13.18;;;;;;;7.63;100.00;162561.22;5011694;28;20493;-53
2022/05/01 01:18:47;;;;;;;13.63;12.27;;;;;;;7.66;100.00;162566.63;5014066;28;20065;-54
2022/05/01 01:21:12;;;;;;;15.73;12.77;;;;;;;7.62;100.00;162558.56;5012324;28;20493;-54
2022/05/01 01:23:42;;;;;;;13.90;12.45;;;;;;;7.57;100.00;162545.06;5013001;28;20076;-54
2022/05/01 01:26:09;;;;;;;14.70;12.82;;;;;;;7.50;100.00;162526.19;5012139;28;20038;-54
2022/05/01 01:28:39;;;;;;;16.77;11.98;;;;;;;7.53;100.00;162534.31;5013659;28;20036;-54
2022/05/01 01:33:51;;;;;;;16.00;12.25;;;;;;;7.47;100.00;162518.16;5013759;28;20028;-55
2022/05/01 01:36:20;;;;;;;12.13;10.82;;;;;;;7.43;100.00;162508.72;5011788;28;20120;-54
2022/05/01 01:38:45;;;;;;;19.75;13.57;;;;;;;7.45;100.00;162512.75;5012983;28;20018;-54
2022/05/01 01:41:12;;;;;;;18.95;12.82;;;;;;;7.45;100.00;162514.06;5012051;28;20049;-53
2022/05/01 01:43:42;;;;;;;16.10;11.38;;;;;;;7.46;100.00;162515.44;5012490;28;20064;-54
2022/05/01 01:46:07;;;;;;;27.05;13.27;;;;;;;7.42;100.00;162506.03;5011774;28;20042;-54
2022/05/01 01:48:32;;;;;;;17.83;13.82;;;;;;;7.40;100.00;162500.63;5012833;28;20076;-55
2022/05/01 01:51:03;;;;;;;15.23;13.52;;;;;;;7.39;100.00;162496.59;5011465;28;20053;-54
2022/05/01 01:53:33;;;;;;;14.75;13.35;;;;;;;7.38;100.00;162493.91;5012539;28;20534;-54
2022/05/01 01:55:59;;;;;;;14.48;11.30;;;;;;;7.39;100.00;162496.59;5011600;28;20037;-54
2022/05/01 01:58:26;;;;;;;15.65;13.52;;;;;;;7.42;100.00;162504.66;5012549;28;20029;-54
2022/05/01 02:00:51;;;;;;;17.27;14.35;;;;;;;7.42;100.00;162506.03;5008182;28;20046;-54
2022/05/01 02:03:17;;;;;;;15.48;11.35;;;;;;;7.43;100.00;162507.34;4993369;28;20030;-54
2022/05/01 02:05:43;;;;;;;19.02;13.10;;;;;;;7.42;100.00;162504.66;4991620;28;20042;-52
2022/05/01 02:08:08;;;;;;;15.52;12.73;;;;;;;7.39;100.00;162496.59;4993284;28;20097;-53
2022/05/01 02:10:35;;;;;;;17.33;13.25;;;;;;;7.41;100.00;162503.31;4990924;28;20034;-55
2022/05/01 02:13:01;;;;;;;15.82;12.02;;;;;;;7.40;100.00;162499.28;4993253;28;20037;-54
2022/05/01 02:15:33;;;;;;;14.65;10.60;;;;;;;7.36;100.00;162488.50;4992419;28;20045;-54
2022/05/01 02:17:59;;;;;;;16.15;12.57;;;;;;;7.29;100.00;162472.34;5011393;28;20117;-54
2022/05/01 02:20:27;;;;;;;26.67;14.15;;;;;;;7.26;100.00;162462.91;5012308;28;20026;-52
2022/05/01 02:22:55;;;;;;;13.63;12.27;;;;;;;7.28;100.00;162468.31;5010824;28;20042;-53
2022/05/01 02:25:21;;;;;;;14.35;12.73;;;;;;;7.25;100.00;162461.59;5012356;28;20413;-54
2022/05/01 02:27:47;;;;;;;16.20;14.48;;;;;;;7.26;100.00;162462.91;5010624;28;20046;-54
2022/05/01 02:30:12;;;;;;;21.02;15.02;;;;;;;7.22;100.00;162453.47;5012030;28;20115;-55
2022/05/01 02:32:39;;;;;;;14.15;12.82;;;;;;;7.21;100.00;162449.47;5010698;28;20501;-54
2022/05/01 02:35:06;;;;;;;14.90;13.40;;;;;;;7.20;100.00;162448.06;5012296;28;20496;-54
2022/05/01 02:37:32;;;;;;;14.50;12.65;;;;;;;7.22;100.00;162452.16;5010288;28;20042;-54
2022/05/01 02:39:57;;;;;;;14.20;12.80;;;;;;;7.24;100.00;162457.50;5012459;28;20025;-54
2022/05/01 02:42:23;;;;;;;15.70;14.10;;;;;;;7.23;100.00;162456.19;5010377;28;20045;-55
2022/05/01 02:44:48;;;;;;;15.82;12.68;;;;;;;7.13;100.00;162430.59;5011841;28;20026;-54
2022/05/01 02:47:13;;;;;;;18.75;15.00;;;;;;;7.11;100.00;162423.88;5010809;28;20042;-54
2022/05/01 02:49:40;;;;;;;15.13;13.48;;;;;;;7.12;100.00;162426.53;5011672;28;20036;-54
2022/05/01 02:52:07;;;;;;;19.67;14.32;;;;;;;7.13;100.00;162429.22;5010400;28;20041;-54
2022/05/01 02:54:32;;;;;;;18.38;15.18;;;;;;;7.15;100.00;162435.94;5011546;28;20025;-54
2022/05/01 02:56:58;;;;;;;17.30;12.38;;;;;;;7.14;100.00;162433.31;5010445;28;20045;-54
2022/05/01 02:59:23;;;;;;;20.45;13.32;;;;;;;6.97;100.00;162388.81;5011258;28;20022;-54
2022/05/01 03:01:48;;;;;;;14.43;12.82;;;;;;;6.96;100.00;162386.13;5010292;28;20046;-54
2022/05/01 03:04:14;;;;;;;16.00;14.40;;;;;;;6.99;100.00;162394.22;5011838;28;20283;-54
2022/05/01 03:06:39;;;;;;;18.55;13.88;;;;;;;7.03;100.00;162403.66;5009654;28;20555;-54
2022/05/01 03:09:05;;;;;;;18.58;13.45;;;;;;;7.04;100.00;162404.97;5011726;28;20022;-54
2022/05/01 03:11:32;;;;;;;13.88;12.52;;;;;;;7.07;100.00;162413.06;5010037;28;20053;-54
2022/05/01 03:13:57;;;;;;;17.15;14.00;;;;;;;7.08;100.00;162415.78;5011157;28;20030;-54
2022/05/01 03:16:23;;;;;;;17.23;12.52;;;;;;;7.07;100.00;162413.06;5009946;28;20401;-54
2022/05/01 03:24:18;;;;;;;17.85;14.77;;;;;;;7.10;100.00;162421.19;5010977;28;20068;-54
2022/05/01 03:26:43;;;;;;;17.83;13.23;;;;;;;7.19;100.00;162445.38;5009719;28;20045;-53
2022/05/01 03:29:10;;;;;;;14.20;11.77;;;;;;;7.20;100.00;162448.06;5011391;28;20022;-55
2022/05/01 03:31:37;;;;;;;18.02;13.65;;;;;;;7.05;100.00;162407.66;5009885;28;20172;-54
2022/05/01 03:34:04;;;;;;;17.65;14.40;;;;;;;6.88;100.00;162364.63;5011391;28;20037;-53
2022/05/01 03:36:29;;;;;;;18.60;14.80;;;;;;;6.83;100.00;162352.50;5009548;28;20034;-54
2022/05/01 03:38:55;;;;;;;19.73;13.25;;;;;;;6.81;100.00;162347.09;5011211;28;20029;-54
2022/05/01 03:41:20;;;;;;;18.70;14.73;;;;;;;6.85;100.00;162355.19;5009856;28;20490;-53
2022/05/01 03:43:45;;;;;;;15.38;13.75;;;;;;;6.88;100.00;162364.63;5010766;28;20030;-54
2022/05/01 03:46:11;;;;;;;17.83;14.88;;;;;;;6.88;100.00;162364.63;5009592;28;20033;-53
2022/05/01 03:48:36;;;;;;;19.05;14.90;;;;;;;6.95;100.00;162383.47;5011256;28;20037;-54
2022/05/01 03:51:02;;;;;;;17.60;14.13;;;;;;;6.97;100.00;162388.81;5009397;28;20563;-54
2022/05/01 03:53:29;;;;;;;16.27;13.35;;;;;;;6.93;100.00;162376.69;5011266;28;20022;-54
2022/05/01 03:55:55;;;;;;;16.65;14.85;;;;;;;6.94;100.00;162379.41;5009772;28;20038;-54
2022/05/01 03:58:20;;;;;;;17.45;13.88;;;;;;;6.93;100.00;162378.06;5010870;28;20113;-54
2022/05/01 04:00:47;;;;;;;15.57;13.98;;;;;;;6.92;100.00;162375.38;5009616;28;20120;-54
2022/05/01 04:03:16;;;;;;;16.35;14.80;;;;;;;6.93;100.00;162378.06;5011224;28;20388;-53
2022/05/01 04:05:42;;;;;;;18.00;16.13;;;;;;;6.93;100.00;162378.06;5009097;28;20026;-54
2022/05/01 04:08:10;;;;;;;17.58;15.13;;;;;;;6.95;100.00;162383.47;5011071;28;20380;-54
2022/05/01 04:10:41;;;;;;;21.00;16.83;;;;;;;6.96;100.00;162386.13;5009203;28;20030;-54
2022/05/01 04:13:08;;;;;;;17.10;13.57;;;;;;;6.96;100.00;162386.13;5010717;28;20026;-54
2022/05/01 04:15:33;;;;;;;17.98;14.27;;;;;;;7.00;100.00;162395.53;5009214;28;20107;-55
2022/05/01 04:17:59;;;;;;;17.73;14.88;;;;;;;7.02;100.00;162399.63;5011326;28;20497;-54
2022/05/01 04:20:25;;;;;;;17.80;14.98;;;;;;;7.04;100.00;162404.97;5010449;28;20026;-54
2022/05/01 04:22:51;;;;;;;17.10;15.40;;;;;;;7.05;100.00;162407.66;5009646;28;20501;-54
2022/05/01 04:25:19;;;;;;;18.67;16.38;;;;;;;7.06;100.00;162410.38;5010898;28;20032;-54
2022/05/01 04:27:46;;;;;;;19.70;15.52;;;;;;;7.03;100.00;162402.31;5008784;28;20107;-54
2022/05/01 04:30:13;;;;;;;17.77;14.90;;;;;;;7.02;100.00;162399.63;5010774;28;20496;-54
2022/05/01 04:32:58;;;;;;;17.52;15.68;;;;;;;7.04;100.00;162404.97;5009524;28;20053;-54
2022/05/01 04:35:29;;;;;;;18.10;15.82;;;;;;;7.06;100.00;162411.75;5013434;28;20022;-54
2022/05/01 04:38:21;;;;;;;20.85;15.32;;;;;;;7.08;100.00;162415.78;5013009;28;20050;-54
2022/05/01 04:40:49;;;;;;;18.20;15.52;;;;;;;7.11;100.00;162423.88;5014402;28;20021;-54
2022/05/01 04:43:19;;;;;;;22.40;16.05;;;;;;;7.04;100.00;162406.34;5012591;28;20519;-54
2022/05/01 04:45:52;;;;;;;17.02;13.98;;;;;;;7.10;100.00;162421.19;5014125;28;20509;-54
2022/05/01 04:48:19;;;;;;;18.98;15.98;;;;;;;7.11;100.00;162423.88;5012927;28;20036;-53
2022/05/01 04:50:45;;;;;;;19.05;16.85;;;;;;;7.13;100.00;162430.59;5013589;28;20420;-54
2022/05/01 04:53:12;;;;;;;18.20;16.15;;;;;;;7.17;100.00;162440.03;5012765;28;20460;-54
2022/05/01 04:55:38;;;;;;;24.55;16.20;;;;;;;7.16;100.00;162437.31;5013957;28;20105;-54
2022/05/01 04:58:04;;;;;;;18.33;14.75;;;;;;;7.16;100.00;162437.31;5012272;28;20049;-53
2022/05/01 05:00:30;;;;;;;19.35;15.52;;;;;;;7.17;100.00;162438.66;5013545;28;20026;-54
2022/05/01 05:02:56;;;;;;;20.50;15.68;;;;;;;7.15;100.00;162435.94;5012866;28;20435;-54
2022/05/01 05:05:23;;;;;;;22.45;17.60;;;;;;;7.17;100.00;162440.03;5013541;28;20072;-54
2022/05/01 05:07:48;;;;;;;21.10;17.13;;;;;;;7.17;100.00;162440.03;5012468;28;20060;-53
2022/05/01 05:10:15;;;;;;;17.60;15.85;;;;;;;7.19;100.00;162445.38;5013749;28;20568;-54
2022/05/01 05:12:42;;;;;;;24.40;15.35;;;;;;;7.20;100.00;162448.06;5011765;28;20134;-54
2022/05/01 05:15:10;;;;;;;20.50;14.88;;;;;;;7.26;100.00;162464.22;5013988;28;20025;-54
2022/05/01 05:17:36;;;;;;;20.48;17.55;;;;;;;7.28;100.00;162469.63;5012260;28;20128;-54
2022/05/01 05:20:03;;;;;;;18.73;16.77;;;;;;;7.37;100.00;162492.50;5013497;28;20036;-54
2022/05/01 05:22:29;;;;;;;19.58;16.98;;;;;;;7.41;100.00;162502.00;5011977;28;20512;-54
2022/05/01 05:24:54;;;;;;;17.95;15.85;;;;;;;7.42;100.00;162504.66;5013815;28;20023;-54
2022/05/01 05:27:21;;;;;;;17.83;14.82;;;;;;;7.44;100.00;162510.06;5011919;28;20038;-54
2022/05/01 05:29:49;;;;;;;16.98;15.25;;;;;;;7.45;100.00;162514.06;5013197;28;20489;-54
2022/05/01 05:32:14;;;;;;;23.15;18.38;;;;;;;7.37;100.00;162491.19;5012282;28;20046;-54
2022/05/01 05:34:40;;;;;;;22.67;15.88;;;;;;;7.44;100.00;162510.06;5012900;28;20494;-54
2022/05/01 05:37:05;;;;;;;21.73;16.52;;;;;;;7.44;100.00;162511.44;5012102;28;20080;-55
2022/05/01 05:39:31;;;;;;;18.83;16.70;;;;;;;7.49;100.00;162522.19;5013010;28;20084;-54
2022/05/01 05:41:56;;;;;;;25.35;17.27;;;;;;;7.51;100.00;162528.91;5011649;28;20065;-54
2022/05/01 05:44:22;;;;;;;18.30;16.42;;;;;;;7.54;100.00;162535.63;5013232;28;20091;-54
2022/05/01 05:46:47;;;;;;;18.38;16.45;;;;;;;7.58;100.00;162546.44;5010651;28;20056;-54
2022/05/01 05:49:12;;;;;;;19.60;17.15;;;;;;;7.56;100.00;162542.38;5012844;28;20478;-54
2022/05/01 05:51:38;;;;;;;20.90;16.98;;;;;;;7.57;100.00;162545.06;5011191;28;20034;-53
2022/05/01 05:54:03;;;;;;;20.45;17.88;;;;;;;7.69;100.00;162574.72;5013612;28;20021;-54
2022/05/01 05:56:28;;;;;;;23.52;18.80;;;;;;;7.69;100.00;162574.72;5011073;28;20382;-54
2022/05/01 05:58:56;;;;;;;20.27;16.45;;;;;;;7.71;100.00;162580.09;5013041;28;20021;-55
2022/05/01 06:01:21;;;;;;;19.80;17.80;;;;;;;7.72;100.00;162582.78;5011461;28;20046;-54
2022/05/01 06:03:46;;;;;;;22.25;18.45;;;;;;;7.81;100.00;162607.06;5012388;28;20037;-54
2022/05/01 06:06:14;;;;;;;20.17;17.77;;;;;;;7.85;100.00;162617.84;5011361;28;20042;-54
2022/05/01 06:08:39;;;;;;;23.17;18.10;;;;;;;7.90;100.00;162631.31;5012463;28;20477;-54
2022/05/01 06:11:05;;;;;;;18.88;16.95;;;;;;;7.96;100.00;162644.78;5010838;28;20053;-54
2022/05/01 06:13:30;;;;;;;27.27;17.42;;;;;;;7.99;100.00;162652.88;5012905;28;20022;-54
2022/05/01 06:15:56;;;;;;;25.75;17.27;;;;;;;8.05;100.00;162669.03;5011003;28;20037;-53
2022/05/01 06:18:21;;;;;;;25.58;17.80;;;;;;;8.09;100.00;162679.81;5011785;28;20084;-53
2022/05/01 06:20:47;;;;;;;23.17;18.45;;;;;;;8.20;100.00;162709.47;5010551;28;20021;-54
2022/05/01 06:23:13;;;;;;;22.65;18.00;;;;;;;8.23;100.00;162717.53;5012749;28;20048;-54
2022/05/01 06:25:46;;;;;;;23.88;16.92;;;;;;;8.23;100.00;162717.53;5009925;28;20022;-54
2022/05/01 06:28:15;;;;;;;20.40;17.13;;;;;;;8.33;100.00;162741.81;5012904;28;20046;-54
2022/05/01 06:30:49;;;;;;;25.83;18.85;;;;;;;8.41;100.00;162763.38;5010607;28;20477;-54
2022/05/01 06:33:16;;;;;;;26.55;16.50;;;;;;;8.55;100.00;162801.16;5012010;28;20034;-53
2022/05/01 06:35:43;;;;;;;19.23;16.40;;;;;;;8.49;100.00;162785.00;5010770;28;20022;-54
2022/05/01 06:38:08;;;;;;;20.60;17.10;;;;;;;8.51;100.00;162789.03;5012288;28;20034;-53
2022/05/01 06:40:35;;;;;;;19.95;17.55;;;;;;;8.49;100.00;162785.00;5010298;28;20072;-53
2022/05/01 06:43:01;;;;;;;23.13;16.50;;;;;;;8.56;100.00;162803.88;5012317;28;20034;-54
2022/05/01 06:45:26;;;;;;;22.13;17.42;;;;;;;8.68;100.00;162833.50;5010483;28;20030;-53
2022/05/01 06:47:51;;;;;;;18.23;15.40;;;;;;;8.84;100.00;162876.66;5012118;28;20030;-54
2022/05/01 06:50:17;;;;;;;19.58;17.55;;;;;;;8.95;100.00;162903.66;5012002;28;20026;-54
2022/05/01 06:52:42;;;;;;;23.92;17.27;;;;;;;8.92;100.00;162895.53;5010302;28;20045;-53
2022/05/01 06:55:09;;;;;;;21.95;16.80;;;;;;;8.94;100.00;162900.94;5011651;28;20022;-54
2022/05/01 06:57:34;;;;;;;20.33;16.10;;;;;;;8.91;100.00;162892.81;5010328;28;20042;-54
2022/05/01 07:00:00;;;;;;;25.00;16.63;;;;;;;9.01;100.00;162919.81;5012211;28;20465;-54
2022/05/01 07:02:25;;;;;;;21.38;16.15;;;;;;;9.10;100.00;162942.72;5009918;28;20473;-54
2022/05/01 07:04:50;;;;;;;18.25;16.20;;;;;;;9.11;100.00;162945.44;5011995;28;20021;-54
2022/05/01 07:07:16;;;;;;;17.08;14.95;;;;;;;8.97;100.00;162909.06;5010552;28;20053;-54
2022/05/01 07:09:41;;;;;;;20.27;17.58;;;;;;;8.80;100.00;162865.91;5011235;28;20033;-54
2022/05/01 07:12:10;;;;;;;19.75;17.75;;;;;;;9.01;100.00;162919.81;5010269;28;20033;-54
2022/05/01 07:14:36;;;;;;;19.05;16.00;;;;;;;9.07;100.00;162936.00;5011707;28;20029;-54
2022/05/01 07:17:02;;;;;;;26.52;18.52;;;;;;;9.13;100.00;162952.16;5010049;28;20056;-54
2022/05/01 07:19:27;;;;;;;22.98;15.90;;;;;;;9.10;100.00;162944.09;5011405;28;20029;-54
2022/05/01 07:21:52;;;;;;;18.92;16.27;;;;;;;9.19;100.00;162967.00;5010349;28;20409;-54
2022/05/01 07:24:18;;;;;;;20.30;16.15;;;;;;;9.27;100.00;162987.28;5011370;28;20030;-53
2022/05/01 07:26:43;;;;;;;18.73;15.85;;;;;;;9.38;100.00;163016.91;5009898;28;20049;-54
2022/05/01 07:29:08;;;;;;;25.67;17.70;;;;;;;9.55;100.00;163060.09;5011835;28;20033;-53
2022/05/01 07:31:34;;;;;;;17.73;15.50;;;;;;;9.63;100.00;163081.69;5009369;28;20471;-54
2022/05/01 07:33:59;;;;;;;32.83;18.17;;;;;;;9.51;100.00;163051.97;5011576;28;20480;-54
2022/05/01 07:36:24;;;;;;;17.88;15.55;;;;;;;9.55;100.00;163060.09;5009815;28;20382;-54
2022/05/01 07:38:50;;;;;;;16.65;14.27;;;;;;;9.56;100.00;163062.78;5011319;28;20033;-54
2022/05/01 07:41:19;;;;;;;21.77;17.13;;;;;;;9.47;100.00;163041.22;5010038;28;20498;-54
2022/05/01 07:43:45;;;;;;;18.73;16.63;;;;;;;9.57;100.00;163065.50;5011357;28;20026;-54
2022/05/01 07:46:11;;;;;;;18.40;16.25;;;;;;;9.49;100.00;163046.56;5009716;28;20046;-53
2022/05/01 07:48:36;;;;;;;16.85;15.13;;;;;;;9.57;100.00;163065.50;5010954;28;20030;-54
2022/05/01 07:51:02;;;;;;;19.15;15.00;;;;;;;9.55;100.00;163060.09;5009991;28;20045;-54
2022/05/01 07:53:28;;;;;;;18.20;16.35;;;;;;;9.69;100.00;163097.84;5011091;28;20501;-54
2022/05/01 07:55:53;;;;;;;17.60;15.75;;;;;;;9.52;100.00;163054.69;5009515;28;20116;-53
2022/05/01 07:58:21;;;;;;;19.60;17.60;;;;;;;9.65;100.00;163087.03;5011334;28;20022;-54
2022/05/01 08:00:47;;;;;;;21.55;15.88;;;;;;;9.65;100.00;163087.03;5009354;28;20628;-55
2022/05/01 08:05:56;;;;;;;24.58;17.02;;;;;;;10.03;100.00;163185.56;5009829;28;20177;-54
2022/05/01 08:08:22;;;;;;;19.92;15.98;;;;;;;10.04;100.00;163189.59;5014642;28;20485;-54
2022/05/01 08:10:47;;;;;;;21.90;16.52;;;;;;;10.31;100.00;163259.78;5030944;28;20045;-56
2022/05/01 08:13:12;;;;;;;16.92;15.13;;;;;;;10.51;100.00;163311.09;5032707;28;20037;-54
2022/05/01 08:15:38;;;;;;;18.02;15.75;;;;;;;10.29;100.00;163254.38;5032290;28;20030;-54
2022/05/01 08:21:05;;;;;;;20.90;14.93;;;;;;;10.27;100.00;163250.34;5031672;28;20065;-54
2022/05/01 08:23:32;;;;;;;16.15;13.55;;;;;;;10.68;100.00;163357.03;5033686;28;20112;-52
2022/05/01 08:26:02;;;;;;;18.40;14.45;;;;;;;10.86;100.00;163402.88;5032430;28;20079;-53
2022/05/01 08:28:31;;;;;;;20.50;14.90;;;;;;;10.95;100.00;163427.19;5030243;28;20448;-54
2022/05/01 08:30:56;;;;;;;14.35;11.80;;;;;;;10.85;100.00;163400.19;5030697;28;20076;-54
2022/05/01 08:33:22;;;;;;;17.27;13.25;;;;;;;11.13;100.00;163473.13;5033248;28;20025;-54
2022/05/01 08:35:47;;;;;;;17.67;13.93;;;;;;;11.49;100.00;163567.63;5031625;28;20042;-53
2022/05/01 08:38:12;;;;;;;14.50;10.32;;;;;;;11.20;100.00;163492.03;5033361;28;20370;-54
2022/05/01 08:40:38;;;;;;;13.20;10.35;;;;;;;11.43;100.00;163554.09;5029910;28;20029;-54
2022/05/01 08:43:04;;;;;;;14.23;12.80;;;;;;;11.80;100.00;163648.69;5031520;28;20018;-54
2022/05/01 08:45:45;;;;;;;11.57;9.57;;;;;;;11.99;100.00;163700.06;5030332;28;20112;-53
2022/05/01 08:48:21;;;;;;;10.85;9.75;;;;;;;11.89;100.00;163672.97;5031826;28;20021;-54
2022/05/01 08:50:48;;;;;;;13.80;10.50;;;;;;;11.92;100.00;163681.09;5029574;28;20122;-53
2022/05/01 08:53:17;;;;;;;20.70;12.20;;;;;;;12.22;100.00;163760.84;5031839;28;20033;-54
2022/05/01 08:55:43;;;;;;;;;;;;;;;12.47;100.00;163824.38;5031939;28;20033;-55
2022/05/01 08:58:08;;;;;;;14.45;11.63;;;;;;;12.62;100.00;163863.53;5030878;28;20284;-54
2022/05/01 09:00:34;;;;;;;14.10;10.05;;;;;;;12.55;100.00;163845.97;5030557;28;20025;-55
2022/05/01 09:03:02;;;;;;;14.55;12.05;;;;;;;12.37;100.00;163800.03;5033533;28;20433;-55
2022/05/01 09:05:27;;;;;;;11.45;10.05;;;;;;;12.66;100.00;163874.34;5029904;28;20029;-54
2022/05/01 09:07:53;;;;;;;9.02;8.07;;;;;;;12.99;100.00;163962.19;5032069;28;20099;-54
2022/05/01 09:10:24;;;;;;;9.15;7.50;;;;;;;13.19;100.00;164013.59;5032145;28;20044;-53
2022/05/01 09:12:54;;;;;;;8.45;6.75;;;;;;;13.90;100.00;164200.25;5029727;28;20088;-54
2022/05/01 09:15:30;;;;;;;7.65;6.93;;;;;;;13.99;100.00;164223.25;5031106;28;20120;-53
2022/05/01 09:18:08;;;;;;;8.27;6.88;;;;;;;14.32;100.00;164309.81;5010289;28;20226;-54
2022/05/01 09:20:33;;;;;;;6.22;4.95;;;;;;;14.12;100.00;164257.03;5010504;28;20492;-54
2022/05/01 09:22:59;;;;;;;6.43;5.70;;;;;;;14.28;100.00;164300.34;5012293;28;20076;-52
2022/05/01 09:25:27;;;;;;;6.75;5.70;;;;;;;14.25;100.00;164290.88;5011977;28;20040;-52
2022/05/01 09:28:01;;;;;;;4.90;4.10;;;;;;;14.11;100.00;164255.72;5010464;28;20042;-54
2022/05/01 09:30:33;;;;;;;6.35;5.72;;;;;;;14.84;100.00;164446.53;5009169;28;20484;-54
2022/05/01 09:33:00;;;;;;;6.97;5.53;;;;;;;15.41;100.00;164595.41;5010538;28;20029;-53
2022/05/01 09:35:36;;;;;;;15.25;7.80;;;;;;;15.45;100.00;164606.22;5021830;28;20025;-53
2022/05/01 09:38:21;;;;;;;8.25;6.43;;;;;;;15.71;99.64;164675.25;5015041;28;20025;-54
2022/05/01 09:40:49;;;;;;;9.80;5.97;;;;;;;15.57;100.00;164636.03;5009602;28;20112;-53
2022/05/01 09:43:34;;;;;;;7.55;6.50;;;;;;;15.79;100.00;164694.22;5012322;28;20030;-54
2022/05/01 09:46:20;;;;;;;10.32;7.22;;;;;;;15.30;95.32;164565.66;5010856;28;20044;-53
2022/05/01 09:49:12;;;;;;;10.73;5.63;;;;;;;15.59;100.00;164641.47;5011557;28;20407;-54
2022/05/01 09:51:42;;;;;;;6.40;5.80;;;;;;;16.03;94.43;164757.94;5010075;28;20401;-54
2022/05/01 09:54:08;;;;;;;6.22;4.97;;;;;;;15.81;88.88;164699.66;5011233;28;20021;-53
2022/05/01 09:56:45;;;;;;;6.38;5.78;;;;;;;15.66;87.46;164660.41;5008538;28;20497;-53
2022/05/01 09:59:10;;;;;;;5.45;4.93;;;;;;;14.73;88.81;164416.75;5011842;28;20040;-53
2022/05/01 10:01:36;;;;;;;7.35;6.65;;;;;;;15.18;91.35;164534.50;5009393;28;20042;-54
2022/05/01 10:04:02;;;;;;;9.40;6.45;;;;;;;15.49;90.74;164617.06;5011071;28;20500;-54
2022/05/01 10:06:31;;;;;;;7.00;5.60;;;;;;;14.55;89.74;164370.72;5010207;28;20041;-54
2022/05/01 10:08:57;;;;;;;6.47;5.88;;;;;;;14.66;94.90;164397.81;5010640;28;20162;-54
2022/05/01 10:11:24;;;;;;;7.20;6.47;;;;;;;14.77;91.67;164427.59;5009987;28;20108;-54
2022/05/01 10:13:50;;;;;;;10.98;5.43;;;;;;;15.00;91.05;164488.47;5011984;28;20040;-54
2022/05/01 10:16:15;;;;;;;9.23;5.80;;;;;;;14.96;92.52;164476.28;5010461;28;20044;-54
2022/05/01 10:18:42;;;;;;;7.05;5.80;;;;;;;14.53;89.78;164365.28;5011668;28;20100;-54
2022/05/01 10:21:07;;;;;;;7.80;5.72;;;;;;;14.68;92.18;164404.56;5009836;28;20037;-54
2022/05/01 10:23:34;;;;;;;7.78;6.85;;;;;;;14.51;89.91;164358.53;5010791;28;20045;-55
2022/05/01 10:26:13;;;;;;;6.10;5.15;;;;;;;14.94;92.47;164470.88;5010274;28;20042;-54
2022/05/01 10:28:50;;;;;;;5.78;5.20;;;;;;;15.14;85.91;164523.66;5011578;28;20050;-54
2022/05/01 10:35:05;;;;;;;8.00;6.20;;;;;;;15.91;88.81;164725.41;5010231;28;20068;-53
2022/05/01 10:37:40;;;;;;;6.45;5.72;;;;;;;16.45;87.19;164869.00;5007393;28;20038;-53
2022/05/01 10:40:06;;;;;;;7.72;6.78;;;;;;;16.55;86.04;164893.38;5023306;28;20025;-54
2022/05/01 10:42:32;;;;;;;10.32;5.85;;;;;;;16.67;83.77;164924.53;5029483;28;20480;-54
2022/05/01 10:44:58;;;;;;;6.53;5.38;;;;;;;16.00;81.59;164749.81;5031026;28;20076;-54
2022/05/01 10:47:35;;;;;;;9.60;6.82;;;;;;;15.95;80.69;164736.28;5029586;28;20037;-53
2022/05/01 10:50:11;;;;;;;7.43;6.05;;;;;;;15.50;78.00;164618.41;5030557;28;20030;-53
2022/05/01 10:53:03;;;;;;;13.18;7.47;;;;;;;14.83;82.43;164443.84;5029167;28;20106;-54
2022/05/01 10:55:50;;;;;;;8.32;6.05;;;;;;;14.80;82.62;164434.34;5010060;28;20029;-54
2022/05/01 10:58:23;;;;;;;12.88;7.03;;;;;;;15.07;84.93;164506.09;5007393;28;20065;-54
2022/05/01 11:00:50;;;;;;;10.50;6.68;;;;;;;14.92;85.68;164466.81;5027184;28;20517;-53
2022/05/01 11:03:23;;;;;;;7.75;6.95;;;;;;;15.41;89.15;164594.06;5030714;28;20091;-54
2022/05/01 11:05:54;;;;;;;7.70;6.78;;;;;;;15.60;81.28;164644.16;5029184;28;20041;-53
2022/05/01 11:08:23;;;;;;;6.22;5.63;;;;;;;15.58;85.05;164638.75;5030315;28;20021;-54
2022/05/01 11:10:50;;;;;;;7.57;6.10;;;;;;;15.80;80.55;164698.31;5029246;28;20057;-53
2022/05/01 11:13:18;;;;;;;10.93;6.65;;;;;;;15.80;84.76;164698.31;5030388;28;20025;-52
2022/05/01 11:15:50;;;;;;;7.47;4.68;;;;;;;15.35;82.43;164579.16;5027553;28;20036;-53
2022/05/01 11:18:26;;;;;;;9.45;5.95;;;;;;;15.35;83.04;164580.50;5030199;28;20473;-54
2022/05/01 11:20:51;;;;;;;10.95;5.10;;;;;;;15.51;81.04;164622.50;5028730;28;20045;-53
2022/05/01 11:23:33;;;;;;;7.55;6.88;;;;;;;15.11;77.72;164516.91;5030642;28;20032;-51
2022/05/01 11:26:17;;;;;;;7.95;6.40;;;;;;;14.97;79.91;164479.00;5029124;28;20045;-52
2022/05/01 11:29:06;;;;;;;6.13;5.53;;;;;;;15.36;86.67;164581.88;5030282;28;20057;-53
2022/05/01 11:31:37;;;;;;;6.00;5.03;;;;;;;15.83;80.27;164706.47;5028469;28;20444;-52
2022/05/01 11:34:24;;;;;;;6.70;6.10;;;;;;;15.52;76.91;164625.22;5029943;28;20029;-53